Time;durP1;ratioP1;P1;durP2;ratioP2;P2;SDS_P1;SDS_P2;PMS_P1;PMS_P2;Temp;Humidity;BMP_temperature;BMP_pressure;BME280_temperature;BME280_humidity;BME280_pressure;Samples;Min_cycle;Max_cycle;Signal;HPM_P1;HPM_P2
2022/10/16 06:06:47;;;;;;;;;1.50;1.50;;;;;16.85;62.52;100867.03;5646093;23;46179;-57
2022/10/16 06:09:12;;;;;;;;;2.00;2.00;;;;;16.88;62.72;100872.25;4957749;28;47146;-61
2022/10/16 06:11:38;;;;;;;;;4.00;4.00;;;;;16.82;62.53;100864.53;4946986;28;45517;-61
2022/10/16 06:14:06;;;;;;;;;5.75;3.25;;;;;16.93;62.62;100876.53;4958680;28;45332;-62
2022/10/16 06:16:32;;;;;;;;;2.00;2.00;;;;;16.95;62.50;100872.06;4960277;28;45274;-61
2022/10/16 06:18:59;;;;;;;;;2.00;2.00;;;;;16.96;62.55;100874.63;4955504;28;45230;-60
2022/10/16 06:21:26;;;;;;;;;2.00;2.00;;;;;16.98;62.37;100864.84;4949846;28;45600;-60
2022/10/16 06:23:52;;;;;;;;;3.00;3.00;;;;;16.99;62.52;100855.06;4959133;28;45512;-59
2022/10/16 06:26:20;;;;;;;;;2.50;2.00;;;;;17.02;62.42;100862.94;4955549;28;45516;-60
2022/10/16 06:28:45;;;;;;;;;3.50;2.50;;;;;17.03;62.58;100859.31;4957133;28;45384;-60
2022/10/16 06:31:12;;;;;;;;;3.00;2.25;;;;;17.04;62.60;100869.91;4960615;28;45345;-59
2022/10/16 06:33:39;;;;;;;;;3.00;3.00;;;;;17.04;62.40;100856.63;4959892;28;45374;-59
2022/10/16 06:36:10;;;;;;;;;2.75;1.75;;;;;17.06;62.63;100852.09;4974698;28;47677;-59
2022/10/16 06:38:36;;;;;;;;;5.25;3.00;;;;;17.07;62.61;100863.63;4956620;28;45195;-61
2022/10/16 06:41:01;;;;;;;;;3.00;3.00;;;;;17.08;62.37;100873.31;4958170;28;45351;-59
2022/10/16 06:43:32;;;;;;;;;3.75;3.75;;;;;17.10;62.52;100879.41;4957270;28;45698;-60
2022/10/16 06:45:59;;;;;;;;;3.75;3.00;;;;;17.10;62.53;100887.38;4952288;28;46131;-65
2022/10/16 06:48:25;;;;;;;;;4.25;3.00;;;;;17.10;62.44;100887.38;4958870;28;45497;-64
2022/10/16 06:51:01;;;;;;;;;3.75;3.75;;;;;17.11;62.43;100896.22;4959377;28;45315;-59
2022/10/16 06:53:29;;;;;;;;;5.00;5.00;;;;;17.12;62.65;100897.94;4960745;28;45532;-63
2022/10/16 06:55:56;;;;;;;;;4.50;4.50;;;;;17.11;62.53;100905.03;4962103;28;47065;-64
2022/10/16 06:58:21;;;;;;;;;4.50;4.50;;;;;17.11;62.40;100913.00;4963831;28;45377;-61
2022/10/16 07:00:47;;;;;;;;;24.00;19.25;;;;;17.11;62.35;100915.66;4963849;28;45306;-59
2022/10/16 07:03:13;;;;;;;;;7.00;5.00;;;;;17.13;62.57;100916.47;4962403;28;45386;-59
2022/10/16 07:05:42;;;;;;;;;10.00;8.00;;;;;17.15;62.46;100916.41;4963497;28;45410;-64
2022/10/16 07:08:08;;;;;;;;;6.75;6.00;;;;;17.16;62.54;100911.03;4949689;28;45425;-60
2022/10/16 07:10:34;;;;;;;;;5.25;5.25;;;;;17.16;62.61;100912.84;4962060;28;45241;-62
2022/10/16 07:13:00;;;;;;;;;7.00;5.50;;;;;17.18;62.20;100911.84;4962164;28;45489;-67
2022/10/16 07:15:26;;;;;;;;;7.25;4.50;;;;;17.19;62.57;100916.25;4942740;28;47092;-64
2022/10/16 07:17:51;;;;;;;;;4.75;4.75;;;;;17.22;62.41;100904.63;4962656;28;45729;-62
2022/10/16 07:20:17;;;;;;;;;5.25;4.00;;;;;17.25;62.54;100922.22;4958386;28;45591;-62
2022/10/16 07:22:42;;;;;;;;;6.00;6.00;;;;;17.28;62.53;100935.38;4963133;28;45359;-67
2022/10/16 07:25:08;;;;;;;;;5.75;5.75;;;;;17.30;62.58;100947.66;4961612;28;49432;-65
2022/10/16 07:27:33;;;;;;;;;4.75;4.00;;;;;17.32;62.55;100944.94;4963178;28;45549;-68
2022/10/16 07:29:59;;;;;;;;;4.75;4.75;;;;;17.34;62.72;100948.41;4962410;28;45330;-63
2022/10/16 07:32:25;;;;;;;;;5.00;4.00;;;;;17.33;62.76;100947.56;4960785;28;45250;-63
2022/10/16 07:34:51;;;;;;;;;6.50;6.00;;;;;17.37;62.71;100954.47;4961763;28;46343;-64
2022/10/16 07:37:16;;;;;;;;;4.00;3.75;;;;;17.40;62.67;100949.97;4960690;28;45448;-64
2022/10/16 07:39:42;;;;;;;;;4.50;4.00;;;;;17.44;62.58;100960.41;4961873;28;45264;-67
2022/10/16 07:42:07;;;;;;;;;3.50;2.25;;;;;17.45;62.65;100961.28;4960796;28;45223;-63
2022/10/16 07:44:33;;;;;;;;;4.00;4.00;;;;;17.45;62.87;100966.59;4960460;28;46087;-64
2022/10/16 07:46:58;;;;;;;;;6.00;4.25;;;;;17.48;62.91;100962.03;4960619;28;45329;-58
2022/10/16 07:49:24;;;;;;;;;4.75;4.50;;;;;17.52;62.40;100970.72;4961854;28;45339;-65
2022/10/16 07:51:49;;;;;;;;;3.75;3.75;;;;;17.55;62.87;100974.13;4960562;28;45454;-62
2022/10/16 07:54:14;;;;;;;;;6.75;5.00;;;;;17.58;62.80;100975.78;4961494;28;45341;-60
2022/10/16 07:56:39;;;;;;;;;6.00;5.25;;;;;17.62;62.80;100973.88;4960372;28;45254;-58
2022/10/16 07:59:05;;;;;;;;;5.00;4.75;;;;;17.67;62.62;100977.22;4961941;28;45241;-62
2022/10/16 08:01:30;;;;;;;;;3.00;3.00;;;;;17.71;62.55;100970.88;4960677;28;45309;-59
2022/10/16 08:03:55;;;;;;;;;6.00;5.00;;;;;17.76;62.72;100979.53;4962292;28;45519;-63
2022/10/16 08:06:22;;;;;;;;;4.00;4.00;;;;;17.80;62.94;100973.16;4958956;28;46245;-60
2022/10/16 08:08:47;;;;;;;;;5.00;4.75;;;;;17.89;62.51;100976.38;4952996;28;45779;-60
2022/10/16 08:11:14;;;;;;;;;6.75;4.25;;;;;17.94;62.49;100991.22;4958947;28;45326;-59
2022/10/16 08:13:40;;;;;;;;;13.00;10.50;;;;;18.00;62.60;101009.59;4961878;28;46616;-59
2022/10/16 08:16:07;;;;;;;;;5.00;3.50;;;;;18.06;62.55;101011.09;4962183;28;45324;-60
2022/10/16 08:18:36;;;;;;;;;8.25;5.50;;;;;18.10;62.65;101014.50;4950932;28;45740;-61
2022/10/16 08:21:03;;;;;;;;;4.00;3.00;;;;;18.12;62.56;101010.00;4957299;28;45523;-63
2022/10/16 08:23:28;;;;;;;;;3.75;3.00;;;;;18.17;62.63;101005.34;4960593;28;47499;-59
2022/10/16 08:25:54;;;;;;;;;5.75;3.25;;;;;18.21;62.61;101003.44;4943658;28;45307;-59
2022/10/16 08:28:20;;;;;;;;;4.75;4.75;;;;;18.24;62.57;100996.19;4955250;28;45548;-59
2022/10/16 08:30:45;;;;;;;;;3.00;2.00;;;;;18.27;62.42;101001.38;4949413;28;45259;-59
2022/10/16 08:33:11;;;;;;;;;5.00;4.00;;;;;18.32;62.32;101007.38;4952375;28;53843;-59
2022/10/16 08:35:36;;;;;;;;;3.00;2.75;;;;;18.38;62.46;101011.56;4956634;28;45305;-59
2022/10/16 08:38:06;;;;;;;;;2.00;2.00;;;;;18.42;62.76;101015.81;4958148;28;45251;-60
2022/10/16 08:40:35;;;;;;;;;3.00;3.00;;;;;18.50;62.25;101018.16;4957763;28;45881;-65
2022/10/16 08:43:14;;;;;;;;;2.00;2.00;;;;;18.57;62.48;101016.13;4957903;28;45511;-60
2022/10/16 08:45:54;;;;;;;;;3.75;3.50;;;;;18.64;62.10;101006.91;4958231;28;45378;-61
2022/10/16 08:48:25;;;;;;;;;2.25;2.25;;;;;18.73;62.29;101010.97;4957011;28;45406;-61
2022/10/16 08:50:52;;;;;;;;;5.50;4.00;;;;;18.78;62.27;100998.31;4956709;28;45584;-62
2022/10/16 08:53:30;;;;;;;;;3.00;3.00;;;;;18.85;61.89;100997.09;4956391;28;47482;-62
2022/10/16 08:55:55;;;;;;;;;2.25;2.25;;;;;18.91;62.15;100999.53;4956950;28;45314;-59
2022/10/16 08:58:28;;;;;;;;;3.50;3.50;;;;;18.95;61.76;101005.59;4952922;28;45940;-58
2022/10/16 09:00:56;;;;;;;;;3.00;3.00;;;;;19.03;62.18;101013.22;4957722;28;45617;-59
2022/10/16 09:03:43;;;;;;;;;5.00;3.25;;;;;19.07;61.89;101015.69;4959297;28;45346;-62
2022/10/16 09:06:30;;;;;;;;;3.00;3.00;;;;;19.11;61.89;101009.28;4961175;28;45193;-61
2022/10/16 09:09:12;;;;;;;;;4.00;4.00;;;;;19.14;61.43;101014.47;4960869;28;45484;-60
2022/10/16 09:11:57;;;;;;;;;5.00;3.00;;;;;19.21;61.71;101028.38;4961027;28;45204;-62
2022/10/16 09:15:05;;;;;;;;;4.00;2.50;;;;;19.26;61.45;101013.03;4960082;28;47207;-61
2022/10/16 09:17:44;;;;;;;;;2.00;2.00;;;;;19.32;61.74;101019.91;4881351;29;45635;-60
2022/10/16 09:20:27;;;;;;;;;2.00;2.00;;;;;19.39;61.13;101029.31;4945705;28;45405;-60
2022/10/16 09:23:03;;;;;;;;;3.75;2.25;;;;;19.48;61.44;101020.03;4949403;28;45327;-60
2022/10/16 09:25:28;;;;;;;;;3.25;2.50;;;;;19.58;61.44;101020.47;4961259;28;46366;-60
2022/10/16 09:27:55;;;;;;;;;2.00;2.00;;;;;19.67;61.30;101016.50;4961602;28;45334;-60
2022/10/16 09:30:21;;;;;;;;;3.25;3.25;;;;;19.73;61.54;101017.03;4961568;28;45272;-60
2022/10/16 09:32:51;;;;;;;;;4.00;4.00;;;;;19.81;60.82;101020.22;4960490;28;45455;-60
2022/10/16 09:35:31;;;;;;;;;2.00;2.00;;;;;19.90;61.21;101024.28;4961308;28;46202;-60
2022/10/16 09:37:57;;;;;;;;;2.50;2.25;;;;;20.00;61.17;101014.03;4960127;28;45288;-60
2022/10/16 09:40:32;;;;;;;;;3.00;2.00;;;;;20.14;61.10;101024.84;4961375;28;45273;-59
2022/10/16 09:43:05;;;;;;;;;4.33;1.67;;;;;20.27;60.99;101024.25;4961286;28;45566;-59
2022/10/16 09:45:31;;;;;;;;;1.00;1.00;;;;;20.38;60.45;101027.22;4961421;28;46524;-59
2022/10/16 09:47:56;;;;;;;;;2.75;1.50;;;;;20.50;60.58;101027.53;4961121;28;45301;-62
2022/10/16 09:50:27;;;;;;;;;1.00;1.00;;;;;20.54;60.22;101021.09;4960110;28;45334;-59
2022/10/16 09:53:13;;;;;;;;;3.00;2.00;;;;;20.62;60.45;101026.91;4961043;28;45472;-59
2022/10/16 09:55:53;;;;;;;;;1.00;1.00;;;;;20.74;60.52;101028.09;4943982;28;47711;-59
2022/10/16 09:58:23;;;;;;;;;1.00;1.00;;;;;20.83;59.87;101019.63;4959908;28;45241;-60
2022/10/16 10:00:51;;;;;;;;;1.00;1.00;;;;;20.97;60.23;101015.34;4959795;28;45478;-59
2022/10/16 10:03:47;;;;;;;;;1.00;1.00;;;;;21.13;59.84;101013.59;4959825;28;45200;-59
2022/10/16 10:06:23;;;;;;;;;1.00;1.00;;;;;21.22;59.82;101012.19;4944336;28;46934;-59
2022/10/16 10:09:20;;;;;;;;;1.33;1.33;;;;;21.30;60.05;100993.09;4961051;28;45187;-59
2022/10/16 10:11:50;;;;;;;;;1.00;1.00;;;;;21.38;59.68;100985.50;4941671;28;45389;-59
2022/10/16 10:14:20;;;;;;;;;2.00;2.00;;;;;21.46;59.61;100985.94;4961083;28;45417;-59
2022/10/16 10:16:46;;;;;;;;;2.00;1.00;;;;;21.56;59.60;100983.66;4960920;28;46136;-59
2022/10/16 10:19:21;;;;;;;;;0.00;0.00;;;;;21.64;59.42;100992.09;4949645;28;45319;-59
2022/10/16 10:21:48;;;;;;;;;1.67;1.33;;;;;21.70;59.10;100978.38;4955642;28;45610;-59
2022/10/16 10:24:15;;;;;;;;;1.00;1.00;;;;;21.78;59.27;100985.09;4960725;28;45295;-58
2022/10/16 10:27:06;;;;;;;;;1.00;1.00;;;;;21.84;59.25;100988.25;4960871;28;45445;-58
2022/10/16 10:29:34;;;;;;;;;1.00;1.00;;;;;21.94;59.01;100995.75;4949431;28;45281;-58
2022/10/16 10:32:19;;;;;;;;;1.00;1.00;;;;;21.99;59.23;100989.19;4960664;28;45407;-59
2022/10/16 10:34:56;;;;;;;;;1.00;1.00;;;;;22.05;59.11;100996.88;4960578;28;45338;-59
2022/10/16 10:37:33;;;;;;;;;0.67;0.67;;;;;22.06;58.81;100985.22;4947627;28;45483;-59
2022/10/16 10:40:25;;;;;;;;;0.00;0.00;;;;;22.05;58.75;100996.88;4960693;28;45488;-58
2022/10/16 10:43:04;;;;;;;;;0.00;0.00;;;;;22.01;58.64;100997.13;4960801;28;45474;-58
2022/10/16 10:45:43;;;;;;;;;0.67;0.67;;;;;21.99;58.69;101007.06;4948267;28;45327;-59
2022/10/16 10:48:23;;;;;;;;;1.33;0.00;;;;;21.94;58.34;101009.13;4960062;28;46326;-59
2022/10/16 10:51:10;;;;;;;;;0.67;0.67;;;;;21.82;58.79;100990.16;4960490;28;45283;-59
2022/10/16 10:53:44;;;;;;;;;0.00;0.00;;;;;21.85;58.59;100999.84;4948367;28;45335;-59
2022/10/16 10:56:39;;;;;;;;;1.00;1.00;;;;;21.82;58.70;100998.19;4960329;28;45502;-59
2022/10/16 10:59:16;;;;;;;;;0.00;0.00;;;;;21.78;58.30;100993.97;4960355;28;46223;-59
2022/10/16 11:01:54;;;;;;;;;2.00;2.00;;;;;21.74;58.55;100998.63;4948052;28;45480;-59
2022/10/16 11:04:42;;;;;;;;;2.50;1.75;;;;;21.71;58.19;100998.81;4960217;28;45349;-59
2022/10/16 11:07:16;;;;;;;;;1.00;1.00;;;;;21.68;58.68;100985.59;4960120;28;45236;-59
2022/10/16 11:09:48;;;;;;;;;1.00;1.00;;;;;21.66;57.99;100982.16;4946232;28;45251;-59
2022/10/16 11:12:29;;;;;;;;;0.67;0.67;;;;;21.62;57.85;100983.28;4960214;28;45438;-59
2022/10/16 11:15:13;;;;;;;;;1.33;0.33;;;;;21.63;57.84;100987.69;4949249;28;45283;-59
2022/10/16 11:17:50;;;;;;;;;1.00;1.00;;;;;21.62;58.29;100974.41;4957607;28;45219;-58
2022/10/16 11:20:27;;;;;;;;;0.00;0.00;;;;;21.64;58.13;100970.69;4947565;28;46340;-56
2022/10/16 11:22:56;;;;;;;;;1.00;1.00;;;;;21.67;57.84;100975.88;4946619;28;45879;-61
2022/10/16 11:25:30;;;;;;;;;0.00;0.00;;;;;21.72;58.00;100968.44;4959224;28;45461;-61
2022/10/16 11:28:20;;;;;;;;;1.00;1.00;;;;;21.81;57.72;100960.84;4960203;28;45321;-56
2022/10/16 11:30:51;;;;;;;;;1.00;1.00;;;;;21.86;58.06;100959.63;4958649;28;48181;-52
2022/10/16 11:33:47;;;;;;;;;0.00;0.00;;;;;21.90;57.34;100965.66;4960040;28;45244;-53
2022/10/16 11:36:23;;;;;;;;;0.00;0.00;;;;;21.94;57.83;100959.19;4950615;28;45343;-52
2022/10/16 11:39:06;;;;;;;;;0.00;0.00;;;;;22.00;57.94;100956.13;4942568;28;45513;-50
2022/10/16 11:41:35;;;;;;;;;1.00;0.00;;;;;22.05;57.62;100961.22;4963036;28;46553;-55
2022/10/16 11:44:15;;;;;;;;;0.00;0.00;;;;;22.12;57.21;100961.72;4963683;28;45344;-52
2022/10/16 11:46:48;;;;;;;;;0.00;0.00;;;;;22.17;57.55;100962.31;4963298;28;45376;-50
2022/10/16 11:49:19;;;;;;;;;0.00;0.00;;;;;22.21;58.05;100955.81;4963061;28;45527;-51
2022/10/16 11:52:03;;;;;;;;;0.33;0.00;;;;;22.22;57.71;100957.53;4962857;28;46223;-53
2022/10/16 11:55:04;;;;;;;;;0.33;0.33;;;;;22.22;57.52;100944.16;4962790;28;45353;-48
2022/10/16 11:57:35;;;;;;;;;0.00;0.00;;;;;22.23;57.72;100940.53;4949957;28;45335;-53
2022/10/16 12:00:22;;;;;;;;;0.00;0.00;;;;;22.23;57.77;100944.06;4948983;28;45482;-54
2022/10/16 12:02:50;;;;;;;;;0.00;0.00;;;;;22.25;57.29;100938.63;4961371;28;45727;-58
2022/10/16 12:05:49;;;;;;;;;3.00;2.00;;;;;22.29;57.50;100934.81;4950561;28;45484;-55
2022/10/16 12:08:16;;;;;;;;;2.00;1.00;;;;;22.29;57.74;100926.78;4955851;28;45461;-50
2022/10/16 12:10:44;;;;;;;;;0.67;0.67;;;;;22.28;57.39;100921.53;4955314;28;45520;-54
2022/10/16 12:13:33;;;;;;;;;0.50;0.50;;;;;22.26;57.44;100924.28;4955888;28;46158;-53
2022/10/16 12:16:11;;;;;;;;;0.33;0.33;;;;;22.26;57.29;100920.75;4957288;28;45776;-58
2022/10/16 12:18:36;;;;;;;;;2.00;2.00;;;;;22.24;57.32;100924.38;4957835;28;45639;-55
2022/10/16 12:21:06;;;;;;;;;1.00;1.00;;;;;22.21;57.59;100919.22;4951887;28;45534;-57
2022/10/16 12:23:48;;;;;;;;;1.00;1.00;;;;;22.17;57.51;100904.28;4955780;28;46097;-58
2022/10/16 12:26:13;;;;;;;;;2.00;2.00;;;;;22.18;57.71;100908.69;4957406;28;46355;-61
2022/10/16 12:28:40;;;;;;;;;2.00;1.75;;;;;22.16;57.67;100913.28;4957071;28;45377;-62
2022/10/16 12:31:09;;;;;;;;;2.75;2.00;;;;;22.17;57.55;100904.28;4956999;28;45465;-58
2022/10/16 12:33:42;;;;;;;;;1.75;1.75;;;;;22.17;57.49;100903.44;4956695;28;45830;-62
2022/10/16 12:36:15;;;;;;;;;1.25;1.25;;;;;22.19;57.53;100907.72;4961182;28;45595;-61
2022/10/16 12:38:50;;;;;;;;;1.00;1.00;;;;;22.14;57.51;100898.25;4960169;28;45367;-61
2022/10/16 12:41:27;;;;;;;;;1.50;1.50;;;;;22.21;57.18;100904.94;4961846;28;45328;-61
2022/10/16 12:43:52;;;;;;;;;2.75;2.75;;;;;22.20;57.22;100908.56;4949033;28;45404;-56
2022/10/16 12:46:17;;;;;;;;;1.50;1.00;;;;;22.19;57.39;100897.03;4961721;28;45358;-58
2022/10/16 12:48:45;;;;;;;;;2.25;2.00;;;;;22.17;57.39;100896.25;4961647;28;45150;-59
2022/10/16 12:51:21;;;;;;;;;2.67;2.00;;;;;22.21;57.39;100894.25;4961305;28;45436;-58
2022/10/16 12:54:05;;;;;;;;;3.25;3.25;;;;;22.20;57.56;100888.06;4960497;28;45464;-63
2022/10/16 12:56:58;;;;;;;;;3.00;3.00;;;;;22.31;57.37;100889.19;4961759;28;45210;-59
2022/10/16 12:59:23;;;;;;;;;2.00;2.00;;;;;22.44;57.53;100883.97;4960709;28;45197;-58
2022/10/16 13:02:23;;;;;;;;;3.00;2.00;;;;;22.50;57.35;100884.47;4962123;28;45566;-58
2022/10/16 13:05:12;;;;;;;;;2.25;2.25;;;;;22.56;57.43;100872.50;4949148;28;46648;-58
2022/10/16 13:08:09;;;;;;;;;1.67;1.67;;;;;22.65;57.50;100876.44;4960157;28;45296;-58
2022/10/16 13:10:42;;;;;;;;;4.00;4.00;;;;;22.75;57.44;100876.72;4960610;28;45318;-58
2022/10/16 13:13:26;;;;;;;;;8.00;6.00;;;;;22.93;57.53;100874.66;4947719;28;45259;-58
2022/10/16 13:16:04;;;;;;;;;4.00;2.00;;;;;23.32;56.95;100879.31;4956232;28;45238;-58
2022/10/16 13:18:55;;;;;;;;;2.00;2.00;;;;;23.68;56.62;100872.47;4952393;28;45452;-58
2022/10/16 13:21:26;;;;;;;;;3.50;3.25;;;;;24.07;56.18;100866.31;4950273;28;45795;-58
2022/10/16 13:24:07;;;;;;;;;3.00;3.00;;;;;24.40;56.13;100872.97;4960291;28;45418;-58
2022/10/16 13:26:50;;;;;;;;;3.50;2.50;;;;;24.57;55.82;100869.94;4961660;28;45496;-59
2022/10/16 13:29:16;;;;;;;;;4.00;4.00;;;;;24.69;56.72;100868.25;4961510;28;45334;-61
2022/10/16 13:31:43;;;;;;;;;3.00;3.00;;;;;24.81;56.02;100859.28;4960210;28;45466;-60
2022/10/16 13:34:22;;;;;;;;;4.00;3.50;;;;;24.84;56.63;100852.81;4960133;28;45911;-61
2022/10/16 13:36:50;;;;;;;;;2.25;2.25;;;;;24.81;56.66;100853.06;4959833;28;46347;-60
2022/10/16 13:39:29;;;;;;;;;4.00;4.00;;;;;24.75;56.28;100856.19;4961587;28;45346;-65
2022/10/16 13:42:09;;;;;;;;;3.00;3.00;;;;;24.66;56.53;100868.47;4960038;28;45397;-64
2022/10/16 13:44:47;;;;;;;;;5.00;4.00;;;;;24.57;55.55;100859.19;4961269;28;45263;-57
2022/10/16 13:47:27;;;;;;;;;2.00;1.00;;;;;24.43;56.25;100853.97;4949356;28;46379;-56
2022/10/16 13:50:12;;;;;;;;;5.25;4.00;;;;;24.36;56.07;100850.00;4959642;28;45368;-56
2022/10/16 13:52:38;;;;;;;;;2.75;2.75;;;;;24.29;56.05;100855.78;4961315;28;45404;-55
2022/10/16 13:55:13;;;;;;;;;5.00;5.00;;;;;24.23;56.29;100847.31;4961609;28;45374;-55
2022/10/16 13:57:39;;;;;;;;;5.00;3.50;;;;;24.20;56.57;100860.94;4961302;28;45393;-54
2022/10/16 14:00:29;;;;;;;;;3.50;3.25;;;;;24.17;56.58;100849.44;4961654;28;45568;-51
2022/10/16 14:03:12;;;;;;;;;2.50;2.50;;;;;24.18;56.53;100850.31;4959242;28;45249;-48
2022/10/16 14:05:51;;;;;;;;;7.75;7.25;;;;;24.18;56.32;100847.63;4961658;28;45251;-50
2022/10/16 14:08:19;;;;;;;;;4.75;4.75;;;;;24.18;56.55;100853.00;4965563;28;45428;-49
2022/10/16 14:10:49;;;;;;;;;3.50;2.75;;;;;24.17;56.66;100852.13;4960808;28;45446;-52
2022/10/16 14:13:19;;;;;;;;;5.75;5.00;;;;;24.15;56.77;100848.72;4961110;28;45200;-53
2022/10/16 14:15:50;;;;;;;;;3.25;3.25;;;;;24.15;56.39;100858.56;4960783;28;45383;-52
2022/10/16 14:18:23;;;;;;;;;4.50;4.50;;;;;24.13;56.86;100861.38;4953183;28;46113;-51
2022/10/16 14:20:49;;;;;;;;;5.25;5.25;;;;;24.13;56.92;100857.84;4951541;28;45380;-54
2022/10/16 14:23:50;;;;;;;;;5.00;5.00;;;;;24.12;56.72;100856.97;4960785;28;45395;-53
2022/10/16 14:26:19;;;;;;;;;3.50;3.50;;;;;24.11;56.72;100852.59;4871769;29;45467;-55
2022/10/16 14:28:46;;;;;;;;;3.75;3.75;;;;;24.12;56.58;100850.75;4945811;28;46353;-54
2022/10/16 14:31:32;;;;;;;;;4.00;4.00;;;;;24.12;56.79;100848.91;4960626;28;45625;-55
2022/10/16 14:33:59;;;;;;;;;5.00;4.00;;;;;24.13;56.85;100850.63;4960729;28;45484;-54
2022/10/16 14:36:26;;;;;;;;;6.50;4.25;;;;;24.13;56.92;100855.16;4960948;28;45307;-54
2022/10/16 14:39:13;;;;;;;;;3.50;3.50;;;;;24.13;56.71;100856.00;4960487;28;45328;-54
2022/10/16 14:41:45;;;;;;;;;4.00;3.00;;;;;24.14;56.71;100856.88;4960471;28;45525;-54
2022/10/16 14:44:12;;;;;;;;;5.00;5.00;;;;;24.13;56.73;100856.00;4959763;28;45418;-55
2022/10/16 14:46:41;;;;;;;;;6.75;4.75;;;;;24.14;56.82;100865.78;4960471;28;45401;-58
2022/10/16 14:49:12;;;;;;;;;3.75;3.00;;;;;24.13;57.08;100861.38;4960538;28;45358;-58
2022/10/16 14:51:41;;;;;;;;;4.00;3.00;;;;;24.12;56.93;100856.97;4960192;28;45416;-52
2022/10/16 14:54:08;;;;;;;;;5.25;4.25;;;;;24.12;57.07;100861.47;4960649;28;45382;-61
2022/10/16 14:56:49;;;;;;;;;3.00;3.00;;;;;24.10;56.98;100861.59;4960354;28;45507;-53
2022/10/16 14:59:19;;;;;;;;;3.00;3.00;;;;;24.09;57.00;100859.88;4960362;28;46187;-54
2022/10/16 15:01:45;;;;;;;;;4.00;4.00;;;;;24.05;56.71;100852.13;4960504;28;45383;-56
2022/10/16 15:04:12;;;;;;;;;7.50;5.75;;;;;24.05;56.99;100847.63;4960171;28;45372;-54
2022/10/16 15:06:38;;;;;;;;;2.00;1.00;;;;;24.03;56.98;100854.94;4960091;28;45317;-53
2022/10/16 15:09:03;;;;;;;;;2.75;2.75;;;;;24.01;57.04;100856.84;4959927;28;45572;-53
2022/10/16 15:11:32;;;;;;;;;3.75;3.00;;;;;23.96;56.92;100851.81;4974023;28;46037;-52
2022/10/16 15:13:57;;;;;;;;;3.00;3.00;;;;;23.96;56.75;100849.13;4959264;28;45512;-54
2022/10/16 15:16:23;;;;;;;;;2.00;2.00;;;;;23.93;56.89;100843.97;4962322;28;45398;-54
2022/10/16 15:18:48;;;;;;;;;3.00;3.00;;;;;23.91;57.08;100842.31;4952323;28;46027;-52
2022/10/16 15:21:31;;;;;;;;;4.00;4.00;;;;;23.87;57.24;100841.66;4958298;28;45437;-53
2022/10/16 15:23:57;;;;;;;;;3.00;3.00;;;;;23.86;57.20;100837.25;4946191;28;45511;-53
2022/10/16 15:26:27;;;;;;;;;4.00;4.00;;;;;23.83;57.01;100838.31;4963425;28;45386;-53
2022/10/16 15:28:53;;;;;;;;;4.75;4.00;;;;;23.82;57.29;100835.75;4963255;28;45248;-49
2022/10/16 15:31:21;;;;;;;;;4.50;3.00;;;;;23.81;57.29;100832.22;4963278;28;45220;-49
2022/10/16 15:33:55;;;;;;;;;5.50;5.00;;;;;23.81;57.13;100828.66;4963285;28;45523;-52
2022/10/16 15:36:25;;;;;;;;;3.75;3.75;;;;;23.78;57.15;100832.41;4957349;28;45364;-50
2022/10/16 15:38:51;;;;;;;;;4.25;3.25;;;;;23.78;57.21;100828.91;4955885;28;46543;-50
2022/10/16 15:41:16;;;;;;;;;3.25;3.25;;;;;23.76;57.02;100822.75;4957591;28;46452;-51
2022/10/16 15:43:41;;;;;;;;;3.00;3.00;;;;;23.76;57.34;100828.13;4958460;28;45390;-53
2022/10/16 15:46:14;;;;;;;;;6.25;5.75;;;;;23.75;57.41;100823.72;4961501;28;45533;-50
2022/10/16 15:48:39;;;;;;;;;4.50;4.50;;;;;23.74;57.02;100828.25;4962861;28;45369;-49
2022/10/16 15:51:06;;;;;;;;;5.75;5.75;;;;;23.74;57.26;100822.88;4962776;28;45410;-52
2022/10/16 15:53:33;;;;;;;;;6.75;4.75;;;;;23.73;57.07;100814.94;4963219;28;45388;-48
2022/10/16 15:56:04;;;;;;;;;4.25;4.25;;;;;23.75;56.85;100816.56;4962730;28;45232;-51
2022/10/16 15:58:30;;;;;;;;;5.00;3.50;;;;;23.75;57.50;100808.50;4963084;28;46516;-52
2022/10/16 16:00:56;;;;;;;;;6.00;4.75;;;;;23.75;57.41;100813.00;4961481;28;45437;-55
2022/10/16 16:03:22;;;;;;;;;5.75;4.00;;;;;23.74;57.38;100816.66;4962934;28;45295;-53
2022/10/16 16:05:47;;;;;;;;;5.50;5.00;;;;;23.72;57.37;100822.09;4962697;28;45285;-53
2022/10/16 16:08:13;;;;;;;;;6.25;4.75;;;;;23.70;57.16;100826.75;4962473;28;46325;-55
2022/10/16 16:10:38;;;;;;;;;2.00;2.00;;;;;23.70;57.46;100822.22;4961218;28;45513;-54
2022/10/16 16:13:03;;;;;;;;;5.00;5.00;;;;;23.69;57.42;100825.88;4963023;28;45252;-50
2022/10/16 16:15:29;;;;;;;;;7.75;7.50;;;;;23.67;57.51;100825.13;4962822;28;45303;-51
2022/10/16 16:17:54;;;;;;;;;7.25;7.25;;;;;23.64;57.44;100814.59;4957702;28;51311;-52
2022/10/16 16:20:19;;;;;;;;;6.25;6.25;;;;;23.65;57.75;100821.69;4950494;28;45389;-50
2022/10/16 16:22:45;;;;;;;;;7.25;5.00;;;;;23.66;57.92;100822.53;4962803;28;45232;-48
2022/10/16 16:25:10;;;;;;;;;9.00;6.25;;;;;23.63;57.64;100820.06;4962909;28;45247;-51
2022/10/16 16:27:38;;;;;;;;;7.25;6.50;;;;;23.61;57.63;100825.53;4958703;28;47820;-50
2022/10/16 16:30:06;;;;;;;;;6.50;6.50;;;;;23.60;57.69;100826.50;4962292;28;45473;-50
2022/10/16 16:32:33;;;;;;;;;8.00;7.50;;;;;23.59;57.70;100832.81;4960996;28;45355;-50
2022/10/16 16:34:58;;;;;;;;;7.50;7.50;;;;;23.57;57.71;100828.53;4962187;28;45410;-49
2022/10/16 16:37:23;;;;;;;;;14.50;11.25;;;;;23.55;57.60;100831.31;4954086;28;45940;-50
2022/10/16 16:39:49;;;;;;;;;9.00;9.00;;;;;23.52;57.80;100829.72;4962196;28;45204;-51
2022/10/16 16:42:14;;;;;;;;;52.50;43.25;;;;;23.50;57.87;100828.09;4954139;28;45439;-45
2022/10/16 16:44:39;;;;;;;;;24.50;17.75;;;;;23.49;57.93;100839.78;4961737;28;45401;-48
2022/10/16 16:47:05;;;;;;;;;33.25;31.00;;;;;23.46;57.87;100839.97;4961631;28;45312;-49
2022/10/16 16:49:31;;;;;;;;;24.50;19.25;;;;;23.43;57.98;100838.34;4961623;28;45252;-51
2022/10/16 16:51:57;;;;;;;;;17.00;15.50;;;;;23.41;57.86;100831.38;4961506;28;45353;-48
2022/10/16 16:54:22;;;;;;;;;15.50;15.25;;;;;23.37;57.95;100830.75;4961397;28;45437;-48
2022/10/16 16:56:48;;;;;;;;;27.50;24.50;;;;;23.33;57.99;100842.63;4962024;28;46193;-47
2022/10/16 16:59:17;;;;;;;;;27.25;23.00;;;;;23.30;58.10;100838.31;4962110;28;45287;-45
2022/10/16 17:01:43;;;;;;;;;21.25;18.50;;;;;23.28;58.32;100832.22;4962324;28;45238;-45
2022/10/16 17:04:08;;;;;;;;;31.00;27.25;;;;;23.26;58.30;100827.88;4961656;28;45219;-45
2022/10/16 17:06:33;;;;;;;;;24.00;22.25;;;;;23.24;58.63;100845.91;4961775;28;45871;-48
2022/10/16 17:09:02;;;;;;;;;25.25;20.25;;;;;23.20;58.43;100855.97;4961673;28;45242;-46
2022/10/16 17:11:28;;;;;;;;;23.00;20.75;;;;;23.10;59.12;100852.16;4960551;28;45374;-57
2022/10/16 17:13:55;;;;;;;;;24.25;19.00;;;;;22.84;59.74;100842.16;4961823;28;45305;-64
2022/10/16 17:16:22;;;;;;;;;16.25;15.50;;;;;22.62;60.36;100861.41;4948494;28;48655;-62
2022/10/16 17:18:47;;;;;;;;;9.75;8.50;;;;;22.37;60.88;100879.00;4950490;28;45629;-63
2022/10/16 17:21:13;;;;;;;;;11.00;9.00;;;;;22.15;61.40;100878.56;4955087;28;45401;-65
2022/10/16 17:23:39;;;;;;;;;20.50;18.50;;;;;22.05;62.10;100881.81;4961635;28;45350;-64
2022/10/16 17:26:12;;;;;;;;;17.00;16.00;;;;;21.96;62.26;100850.28;4961587;28;45981;-63
2022/10/16 17:28:37;;;;;;;;;12.00;9.50;;;;;21.82;62.77;100842.19;4961825;28;45412;-62
2022/10/16 17:31:14;;;;;;;;;8.75;8.25;;;;;21.71;63.15;100866.91;4961760;28;45218;-66
2022/10/16 17:33:41;;;;;;;;;15.00;13.50;;;;;21.58;63.42;100864.09;4960177;28;45866;-63
2022/10/16 17:36:07;;;;;;;;;13.50;11.75;;;;;21.52;63.91;100875.09;4961587;28;46612;-63
2022/10/16 17:38:33;;;;;;;;;18.00;15.50;;;;;21.47;63.66;100872.72;4961033;28;45412;-63
2022/10/16 17:41:09;;;;;;;;;13.00;12.00;;;;;21.42;63.79;100867.63;4961615;28;45400;-65
2022/10/16 17:43:36;;;;;;;;;10.25;10.25;;;;;21.41;64.03;100875.75;4961224;28;45457;-66
2022/10/16 17:46:02;;;;;;;;;17.00;14.00;;;;;21.34;64.44;100866.34;4961235;28;45266;-64
2022/10/16 17:48:28;;;;;;;;;12.75;12.75;;;;;21.32;64.64;100871.78;4959666;28;45350;-63
2022/10/16 17:50:53;;;;;;;;;11.75;11.75;;;;;21.28;65.08;100872.91;4961365;28;45246;-63